Aérodrome :
LOGIN :

S'inscrire | Disclaimer

   EN    FR    IT 

 










Légende :    VFR   VFR Marginal   IFR   IFR Intensif   IFR Très Intensif
Visi : 
Plafond : 
>= 8 km
>= 3000ft
5 à 8 km
1000 à 3000 ft
1500m à 5 km
500 à 1000 ft
800 à 1500m
200 à 500 ft
< 800m
< 200 ft
Symboles :   Orages  Brouillard  Fortes neiges  Fortes précipitations  Vent > 20 kt
SIGMETs :   Divers  Orages  Givrage  Turbulence  Onde Orograph.  Cendres Volcan.







- Altitude de l'aérodrome : 1411 ft
- Code IATA : GVA


LSGG - Genève Cointrin

DERNIER METAR :
  • 261150Z 04019KT 9999 FEW040 09/M03 Q1026 NOSIG

METARs EXPIRÉS :
  • 261120Z 05020KT 9999 FEW040 09/M03 Q1026 NOSIG
  • 261050Z 04018G31KT 9999 FEW040 08/M03 Q1026 NOSIG
  • 261020Z 04018G30KT 9999 FEW040 08/M02 Q1026 NOSIG
  • 260950Z 04019G31KT 9999 FEW040 07/M03 Q1026 NOSIG
  • 260920Z 03020KT 360V060 9999 FEW040 07/M03 Q1026 NOSIG

TAF TAF LSGG
Valide du 26 à 12h jusqu'au 27 à 18h UTC


261125Z 2612/2718 04020G30KT CAVOK TX11/2615Z TN03/2705Z TX12/2715Z
BECMG 2617/2620 02010KT
BECMG 2707/2710 05020G35KT
ATIS : +41 22 417 40 81
Pas de NOTAMs connus pour ce terrain.
1 SIGMET publié pour la FIR Switzerland (LSAS) :
 
Onde orographique forte
LSAS SIGMET 2 VALID 261125/261500 LSZH
LSAS SWITZERLAND FIR/UIR SEV MTW FCST WI N4653 E01050 - N4535 E00949 - N4533 E00720 - N4554 E00659 - N4625 E00738 - N4639 E00845 - N4653 E01050 FL120/400 STNR WKN=



MET'MAP, la Météo Aéronautique d'un coup d'oeil ! - Copyright ORBIFLY Décembre 2007 - Disclaimer

ORBIFLY MET'MAP TEAM :

Programmation & Développement : Alexandra Zaïnal
Conception & Développement : Baudouin d'Aumeries
Co-Programmation & Développement : Marc-Olivier Méhu
Soutien technique & logistique : Manuel Goepfert

Contact : metmap@orbifly.com




SOURCES & CREDITS :

   NOAA